sensor_id;sensor_type;location;lat;lon;timestamp;P1;durP1;ratioP1;P2;durP2;ratioP2
61373;SDS011;47242;48.158;-1.586;2023-06-14T04:31:23;50.78;;;24.83;;
61373;SDS011;47242;48.158;-1.586;2023-06-14T04:33:50;52.85;;;25.92;;
61373;SDS011;47242;48.158;-1.586;2023-06-14T04:36:18;48.20;;;24.88;;
61373;SDS011;47242;48.158;-1.586;2023-06-14T04:38:44;50.13;;;25.67;;
61373;SDS011;47242;48.158;-1.586;2023-06-14T04:41:11;49.00;;;26.35;;
61373;SDS011;47242;48.158;-1.586;2023-06-14T04:43:37;48.45;;;25.15;;
61373;SDS011;47242;48.158;-1.586;2023-06-14T04:46:06;48.83;;;25.15;;
61373;SDS011;47242;48.158;-1.586;2023-06-14T04:48:36;48.53;;;24.67;;
61373;SDS011;47242;48.158;-1.586;2023-06-14T04:51:02;45.88;;;25.13;;
61373;SDS011;47242;48.158;-1.586;2023-06-14T04:53:29;47.53;;;24.67;;
61373;SDS011;47242;48.158;-1.586;2023-06-14T04:55:54;44.90;;;24.65;;
61373;SDS011;47242;48.158;-1.586;2023-06-14T04:58:20;43.40;;;23.70;;
61373;SDS011;47242;48.158;-1.586;2023-06-14T05:00:46;45.85;;;24.00;;
61373;SDS011;47242;48.158;-1.586;2023-06-14T05:03:11;43.88;;;23.15;;
61373;SDS011;47242;48.158;-1.586;2023-06-14T05:05:38;43.22;;;23.67;;
61373;SDS011;47242;48.158;-1.586;2023-06-14T05:08:05;44.38;;;23.63;;
61373;SDS011;47242;48.158;-1.586;2023-06-14T05:10:31;47.60;;;22.67;;
61373;SDS011;47242;48.158;-1.586;2023-06-14T05:12:59;39.92;;;21.95;;
61373;SDS011;47242;48.158;-1.586;2023-06-14T05:15:25;45.05;;;23.83;;
61373;SDS011;47242;48.158;-1.586;2023-06-14T05:17:51;42.22;;;23.05;;
61373;SDS011;47242;48.158;-1.586;2023-06-14T05:20:20;46.45;;;23.58;;
61373;SDS011;47242;48.158;-1.586;2023-06-14T05:22:49;41.65;;;23.27;;
61373;SDS011;47242;48.158;-1.586;2023-06-14T05:25:17;44.08;;;23.73;;
61373;SDS011;47242;48.158;-1.586;2023-06-14T05:27:43;41.17;;;23.48;;
61373;SDS011;47242;48.158;-1.586;2023-06-14T05:30:08;41.75;;;23.45;;
61373;SDS011;47242;48.158;-1.586;2023-06-14T05:32:35;41.47;;;23.08;;
61373;SDS011;47242;48.158;-1.586;2023-06-14T05:35:00;40.88;;;21.65;;
61373;SDS011;47242;48.158;-1.586;2023-06-14T05:37:26;38.25;;;21.48;;
61373;SDS011;47242;48.158;-1.586;2023-06-14T05:39:52;44.38;;;21.80;;
61373;SDS011;47242;48.158;-1.586;2023-06-14T05:42:17;44.38;;;22.98;;
61373;SDS011;47242;48.158;-1.586;2023-06-14T05:44:43;40.25;;;21.23;;
61373;SDS011;47242;48.158;-1.586;2023-06-14T05:47:08;43.13;;;21.02;;
61373;SDS011;47242;48.158;-1.586;2023-06-14T05:49:34;38.65;;;21.35;;
61373;SDS011;47242;48.158;-1.586;2023-06-14T05:52:00;37.25;;;20.58;;
61373;SDS011;47242;48.158;-1.586;2023-06-14T05:54:26;39.08;;;20.48;;
61373;SDS011;47242;48.158;-1.586;2023-06-14T05:56:51;39.33;;;20.02;;
61373;SDS011;47242;48.158;-1.586;2023-06-14T05:59:17;39.83;;;20.42;;
61373;SDS011;47242;48.158;-1.586;2023-06-14T06:01:42;36.08;;;19.40;;
61373;SDS011;47242;48.158;-1.586;2023-06-14T06:04:08;36.10;;;18.70;;
61373;SDS011;47242;48.158;-1.586;2023-06-14T06:06:34;34.17;;;19.15;;
61373;SDS011;47242;48.158;-1.586;2023-06-14T06:09:00;36.80;;;18.83;;
61373;SDS011;47242;48.158;-1.586;2023-06-14T06:11:26;35.72;;;19.70;;
61373;SDS011;47242;48.158;-1.586;2023-06-14T06:13:52;35.15;;;19.45;;
61373;SDS011;47242;48.158;-1.586;2023-06-14T06:16:17;33.83;;;19.50;;
61373;SDS011;47242;48.158;-1.586;2023-06-14T06:18:43;38.17;;;20.25;;
61373;SDS011;47242;48.158;-1.586;2023-06-14T06:21:08;38.17;;;19.20;;
61373;SDS011;47242;48.158;-1.586;2023-06-14T06:23:34;32.28;;;18.70;;
61373;SDS011;47242;48.158;-1.586;2023-06-14T06:26:00;34.03;;;19.00;;
61373;SDS011;47242;48.158;-1.586;2023-06-14T06:28:26;36.80;;;18.02;;
61373;SDS011;47242;48.158;-1.586;2023-06-14T06:30:52;31.83;;;17.95;;
61373;SDS011;47242;48.158;-1.586;2023-06-14T06:33:18;33.20;;;18.60;;
61373;SDS011;47242;48.158;-1.586;2023-06-14T06:35:44;27.92;;;16.65;;
61373;SDS011;47242;48.158;-1.586;2023-06-14T06:38:10;28.98;;;17.65;;
61373;SDS011;47242;48.158;-1.586;2023-06-14T06:40:36;30.38;;;16.65;;
61373;SDS011;47242;48.158;-1.586;2023-06-14T06:43:02;25.48;;;15.85;;
61373;SDS011;47242;48.158;-1.586;2023-06-14T06:45:28;26.73;;;16.75;;
61373;SDS011;47242;48.158;-1.586;2023-06-14T06:47:53;27.77;;;16.77;;
61373;SDS011;47242;48.158;-1.586;2023-06-14T06:50:20;29.92;;;16.50;;
61373;SDS011;47242;48.158;-1.586;2023-06-14T06:52:48;26.67;;;15.25;;
61373;SDS011;47242;48.158;-1.586;2023-06-14T06:55:14;26.38;;;15.88;;
61373;SDS011;47242;48.158;-1.586;2023-06-14T06:57:39;27.42;;;15.60;;
61373;SDS011;47242;48.158;-1.586;2023-06-14T07:00:06;22.67;;;14.38;;
61373;SDS011;47242;48.158;-1.586;2023-06-14T07:02:35;23.73;;;14.50;;
61373;SDS011;47242;48.158;-1.586;2023-06-14T07:05:01;22.65;;;14.15;;
61373;SDS011;47242;48.158;-1.586;2023-06-14T07:07:27;24.33;;;15.13;;
61373;SDS011;47242;48.158;-1.586;2023-06-14T07:09:53;24.23;;;14.40;;
61373;SDS011;47242;48.158;-1.586;2023-06-14T07:12:19;22.40;;;14.98;;
61373;SDS011;47242;48.158;-1.586;2023-06-14T07:14:44;21.80;;;13.52;;
61373;SDS011;47242;48.158;-1.586;2023-06-14T07:17:10;27.38;;;14.52;;
61373;SDS011;47242;48.158;-1.586;2023-06-14T07:19:36;21.52;;;12.98;;
61373;SDS011;47242;48.158;-1.586;2023-06-14T07:22:01;21.20;;;13.65;;
61373;SDS011;47242;48.158;-1.586;2023-06-14T07:24:27;20.85;;;13.07;;
61373;SDS011;47242;48.158;-1.586;2023-06-14T07:26:53;20.80;;;13.35;;
61373;SDS011;47242;48.158;-1.586;2023-06-14T07:29:20;22.00;;;14.02;;
61373;SDS011;47242;48.158;-1.586;2023-06-14T07:31:46;25.77;;;13.50;;
61373;SDS011;47242;48.158;-1.586;2023-06-14T07:34:12;18.38;;;12.45;;
61373;SDS011;47242;48.158;-1.586;2023-06-14T07:36:37;16.88;;;11.48;;
61373;SDS011;47242;48.158;-1.586;2023-06-14T07:39:03;18.52;;;12.05;;
61373;SDS011;47242;48.158;-1.586;2023-06-14T07:41:30;18.52;;;11.90;;
61373;SDS011;47242;48.158;-1.586;2023-06-14T07:43:56;17.55;;;12.02;;
61373;SDS011;47242;48.158;-1.586;2023-06-14T07:46:22;16.85;;;12.23;;
61373;SDS011;47242;48.158;-1.586;2023-06-14T07:48:48;17.35;;;11.85;;
61373;SDS011;47242;48.158;-1.586;2023-06-14T07:51:13;18.02;;;11.85;;
61373;SDS011;47242;48.158;-1.586;2023-06-14T07:53:39;14.57;;;12.18;;
61373;SDS011;47242;48.158;-1.586;2023-06-14T07:56:06;16.15;;;12.05;;
61373;SDS011;47242;48.158;-1.586;2023-06-14T07:58:31;14.90;;;11.57;;
61373;SDS011;47242;48.158;-1.586;2023-06-14T08:00:57;17.10;;;11.20;;
61373;SDS011;47242;48.158;-1.586;2023-06-14T08:03:23;14.43;;;11.50;;
61373;SDS011;47242;48.158;-1.586;2023-06-14T08:05:49;15.35;;;11.07;;
61373;SDS011;47242;48.158;-1.586;2023-06-14T08:08:15;15.90;;;11.75;;
61373;SDS011;47242;48.158;-1.586;2023-06-14T08:10:41;12.60;;;10.40;;
61373;SDS011;47242;48.158;-1.586;2023-06-14T08:13:06;12.63;;;10.48;;
61373;SDS011;47242;48.158;-1.586;2023-06-14T08:15:34;12.57;;;10.02;;
61373;SDS011;47242;48.158;-1.586;2023-06-14T08:17:59;11.18;;;9.88;;
61373;SDS011;47242;48.158;-1.586;2023-06-14T08:20:26;12.45;;;9.80;;
61373;SDS011;47242;48.158;-1.586;2023-06-14T08:22:52;12.05;;;9.68;;
61373;SDS011;47242;48.158;-1.586;2023-06-14T08:25:21;13.05;;;9.38;;
61373;SDS011;47242;48.158;-1.586;2023-06-14T08:27:47;13.23;;;9.55;;
61373;SDS011;47242;48.158;-1.586;2023-06-14T08:30:13;12.38;;;8.93;;
61373;SDS011;47242;48.158;-1.586;2023-06-14T08:32:39;10.25;;;8.73;;
61373;SDS011;47242;48.158;-1.586;2023-06-14T08:35:04;10.18;;;8.77;;
61373;SDS011;47242;48.158;-1.586;2023-06-14T08:37:32;12.95;;;9.70;;
61373;SDS011;47242;48.158;-1.586;2023-06-14T08:40:01;11.70;;;9.57;;
61373;SDS011;47242;48.158;-1.586;2023-06-14T08:42:30;10.90;;;8.77;;
61373;SDS011;47242;48.158;-1.586;2023-06-14T08:44:57;10.18;;;8.77;;
61373;SDS011;47242;48.158;-1.586;2023-06-14T08:47:23;9.77;;;8.60;;
61373;SDS011;47242;48.158;-1.586;2023-06-14T08:49:51;10.15;;;9.02;;
61373;SDS011;47242;48.158;-1.586;2023-06-14T08:54:47;12.63;;;9.70;;
61373;SDS011;47242;48.158;-1.586;2023-06-14T08:57:14;9.10;;;8.20;;
61373;SDS011;47242;48.158;-1.586;2023-06-14T08:59:45;10.88;;;8.02;;
61373;SDS011;47242;48.158;-1.586;2023-06-14T09:02:14;11.93;;;8.48;;
61373;SDS011;47242;48.158;-1.586;2023-06-14T09:04:44;10.07;;;8.98;;
61373;SDS011;47242;48.158;-1.586;2023-06-14T09:07:11;9.65;;;8.13;;
61373;SDS011;47242;48.158;-1.586;2023-06-14T09:09:40;11.20;;;8.70;;
61373;SDS011;47242;48.158;-1.586;2023-06-14T09:12:10;10.95;;;8.50;;
61373;SDS011;47242;48.158;-1.586;2023-06-14T09:14:37;9.23;;;7.95;;
61373;SDS011;47242;48.158;-1.586;2023-06-14T09:17:05;9.90;;;8.40;;
61373;SDS011;47242;48.158;-1.586;2023-06-14T09:19:31;10.68;;;8.38;;
61373;SDS011;47242;48.158;-1.586;2023-06-14T09:21:56;9.55;;;8.55;;
61373;SDS011;47242;48.158;-1.586;2023-06-14T09:24:23;10.55;;;8.20;;
61373;SDS011;47242;48.158;-1.586;2023-06-14T09:26:50;9.10;;;7.38;;
61373;SDS011;47242;48.158;-1.586;2023-06-14T09:29:17;11.00;;;8.38;;
61373;SDS011;47242;48.158;-1.586;2023-06-14T09:31:45;8.75;;;7.85;;
61373;SDS011;47242;48.158;-1.586;2023-06-14T09:34:11;8.85;;;7.95;;
61373;SDS011;47242;48.158;-1.586;2023-06-14T09:36:37;12.30;;;8.68;;
61373;SDS011;47242;48.158;-1.586;2023-06-14T09:39:05;11.75;;;8.73;;
61373;SDS011;47242;48.158;-1.586;2023-06-14T09:41:33;9.68;;;7.90;;
61373;SDS011;47242;48.158;-1.586;2023-06-14T09:44:00;10.93;;;7.80;;
61373;SDS011;47242;48.158;-1.586;2023-06-14T09:46:28;11.02;;;8.35;;
61373;SDS011;47242;48.158;-1.586;2023-06-14T09:48:55;7.88;;;7.07;;
61373;SDS011;47242;48.158;-1.586;2023-06-14T09:51:25;9.50;;;8.00;;
61373;SDS011;47242;48.158;-1.586;2023-06-14T09:53:52;9.75;;;7.50;;
61373;SDS011;47242;48.158;-1.586;2023-06-14T09:56:28;11.35;;;7.53;;
61373;SDS011;47242;48.158;-1.586;2023-06-14T09:58:55;9.82;;;7.32;;
61373;SDS011;47242;48.158;-1.586;2023-06-14T10:01:26;9.77;;;7.25;;
61373;SDS011;47242;48.158;-1.586;2023-06-14T10:03:55;11.88;;;7.35;;
61373;SDS011;47242;48.158;-1.586;2023-06-14T10:06:25;8.52;;;7.57;;
61373;SDS011;47242;48.158;-1.586;2023-06-14T10:08:54;9.35;;;7.72;;
61373;SDS011;47242;48.158;-1.586;2023-06-14T10:11:22;12.05;;;7.82;;
61373;SDS011;47242;48.158;-1.586;2023-06-14T10:13:49;8.98;;;7.63;;
61373;SDS011;47242;48.158;-1.586;2023-06-14T10:16:51;10.00;;;7.45;;
61373;SDS011;47242;48.158;-1.586;2023-06-14T10:24:42;10.68;;;7.70;;
61373;SDS011;47242;48.158;-1.586;2023-06-14T10:27:08;10.00;;;6.95;;
61373;SDS011;47242;48.158;-1.586;2023-06-14T10:32:18;8.23;;;7.38;;
61373;SDS011;47242;48.158;-1.586;2023-06-14T10:34:45;8.60;;;7.50;;
61373;SDS011;47242;48.158;-1.586;2023-06-14T10:37:18;9.77;;;7.63;;
61373;SDS011;47242;48.158;-1.586;2023-06-14T10:39:44;8.20;;;7.05;;
61373;SDS011;47242;48.158;-1.586;2023-06-14T10:42:13;10.30;;;7.75;;
61373;SDS011;47242;48.158;-1.586;2023-06-14T10:44:46;12.13;;;6.95;;
61373;SDS011;47242;48.158;-1.586;2023-06-14T10:47:23;9.25;;;7.20;;
61373;SDS011;47242;48.158;-1.586;2023-06-14T10:49:50;9.52;;;7.13;;
61373;SDS011;47242;48.158;-1.586;2023-06-14T10:52:28;10.75;;;7.13;;
61373;SDS011;47242;48.158;-1.586;2023-06-14T10:55:14;11.35;;;7.30;;
61373;SDS011;47242;48.158;-1.586;2023-06-14T10:57:45;11.07;;;7.15;;
61373;SDS011;47242;48.158;-1.586;2023-06-14T11:00:23;10.45;;;7.75;;
61373;SDS011;47242;48.158;-1.586;2023-06-14T11:05:41;9.20;;;7.10;;
61373;SDS011;47242;48.158;-1.586;2023-06-14T11:09:00;8.65;;;7.00;;
61373;SDS011;47242;48.158;-1.586;2023-06-14T11:11:07;10.35;;;6.80;;
61373;SDS011;47242;48.158;-1.586;2023-06-14T11:13:34;9.60;;;7.13;;
61373;SDS011;47242;48.158;-1.586;2023-06-14T11:16:03;12.88;;;6.68;;
61373;SDS011;47242;48.158;-1.586;2023-06-14T11:18:36;9.88;;;7.07;;
61373;SDS011;47242;48.158;-1.586;2023-06-14T11:21:02;10.02;;;7.43;;
61373;SDS011;47242;48.158;-1.586;2023-06-14T11:23:28;7.93;;;6.60;;
61373;SDS011;47242;48.158;-1.586;2023-06-14T11:25:54;9.68;;;7.55;;
61373;SDS011;47242;48.158;-1.586;2023-06-14T11:28:20;9.13;;;7.47;;
61373;SDS011;47242;48.158;-1.586;2023-06-14T11:30:47;8.82;;;6.65;;
61373;SDS011;47242;48.158;-1.586;2023-06-14T11:33:16;11.23;;;6.65;;
61373;SDS011;47242;48.158;-1.586;2023-06-14T11:35:45;8.82;;;6.90;;
61373;SDS011;47242;48.158;-1.586;2023-06-14T11:38:11;9.32;;;7.13;;
61373;SDS011;47242;48.158;-1.586;2023-06-14T11:40:38;10.05;;;6.80;;
61373;SDS011;47242;48.158;-1.586;2023-06-14T11:43:03;15.23;;;7.47;;
61373;SDS011;47242;48.158;-1.586;2023-06-14T11:45:29;8.27;;;7.03;;
61373;SDS011;47242;48.158;-1.586;2023-06-14T11:47:56;8.77;;;7.05;;
61373;SDS011;47242;48.158;-1.586;2023-06-14T11:50:23;10.95;;;7.45;;
61373;SDS011;47242;48.158;-1.586;2023-06-14T11:53:07;13.88;;;7.50;;
61373;SDS011;47242;48.158;-1.586;2023-06-14T11:55:38;9.00;;;7.05;;
61373;SDS011;47242;48.158;-1.586;2023-06-14T11:58:05;9.77;;;6.97;;
61373;SDS011;47242;48.158;-1.586;2023-06-14T12:00:31;8.52;;;6.88;;
61373;SDS011;47242;48.158;-1.586;2023-06-14T12:02:57;10.13;;;7.25;;
61373;SDS011;47242;48.158;-1.586;2023-06-14T12:05:23;10.30;;;6.88;;
61373;SDS011;47242;48.158;-1.586;2023-06-14T12:07:50;9.65;;;7.30;;
61373;SDS011;47242;48.158;-1.586;2023-06-14T12:10:18;10.88;;;6.97;;
61373;SDS011;47242;48.158;-1.586;2023-06-14T12:12:44;10.90;;;7.40;;
61373;SDS011;47242;48.158;-1.586;2023-06-14T12:15:10;13.23;;;7.57;;
61373;SDS011;47242;48.158;-1.586;2023-06-14T12:17:37;10.13;;;6.82;;
61373;SDS011;47242;48.158;-1.586;2023-06-14T12:20:07;9.18;;;7.30;;
61373;SDS011;47242;48.158;-1.586;2023-06-14T12:22:39;9.90;;;7.50;;
61373;SDS011;47242;48.158;-1.586;2023-06-14T12:25:22;11.15;;;7.32;;
61373;SDS011;47242;48.158;-1.586;2023-06-14T12:27:56;8.73;;;7.47;;
61373;SDS011;47242;48.158;-1.586;2023-06-14T12:30:22;9.35;;;7.68;;
61373;SDS011;47242;48.158;-1.586;2023-06-14T12:32:48;11.48;;;7.43;;
61373;SDS011;47242;48.158;-1.586;2023-06-14T12:35:16;11.73;;;7.43;;
61373;SDS011;47242;48.158;-1.586;2023-06-14T12:37:42;7.88;;;7.07;;
61373;SDS011;47242;48.158;-1.586;2023-06-14T12:40:08;9.02;;;6.85;;
61373;SDS011;47242;48.158;-1.586;2023-06-14T12:42:35;9.85;;;7.53;;
61373;SDS011;47242;48.158;-1.586;2023-06-14T12:45:01;10.20;;;7.82;;
61373;SDS011;47242;48.158;-1.586;2023-06-14T12:47:27;11.68;;;7.80;;
61373;SDS011;47242;48.158;-1.586;2023-06-14T12:49:53;12.43;;;7.70;;
61373;SDS011;47242;48.158;-1.586;2023-06-14T12:52:18;9.98;;;7.53;;
61373;SDS011;47242;48.158;-1.586;2023-06-14T12:54:44;8.57;;;7.65;;
61373;SDS011;47242;48.158;-1.586;2023-06-14T12:57:10;9.77;;;7.25;;
61373;SDS011;47242;48.158;-1.586;2023-06-14T12:59:36;8.95;;;7.53;;
61373;SDS011;47242;48.158;-1.586;2023-06-14T13:02:17;11.68;;;7.53;;
61373;SDS011;47242;48.158;-1.586;2023-06-14T13:04:46;8.68;;;7.78;;
61373;SDS011;47242;48.158;-1.586;2023-06-14T13:07:11;14.43;;;7.72;;
61373;SDS011;47242;48.158;-1.586;2023-06-14T13:09:37;10.93;;;7.50;;
61373;SDS011;47242;48.158;-1.586;2023-06-14T13:12:03;8.70;;;7.35;;
61373;SDS011;47242;48.158;-1.586;2023-06-14T13:14:29;9.57;;;7.40;;
61373;SDS011;47242;48.158;-1.586;2023-06-14T13:16:55;12.25;;;7.57;;
61373;SDS011;47242;48.158;-1.586;2023-06-14T13:19:20;10.25;;;7.35;;
61373;SDS011;47242;48.158;-1.586;2023-06-14T13:21:46;8.45;;;7.53;;
61373;SDS011;47242;48.158;-1.586;2023-06-14T13:24:13;11.60;;;7.40;;
61373;SDS011;47242;48.158;-1.586;2023-06-14T13:26:38;9.32;;;6.95;;
61373;SDS011;47242;48.158;-1.586;2023-06-14T13:29:04;9.50;;;7.57;;
61373;SDS011;47242;48.158;-1.586;2023-06-14T13:31:30;7.65;;;6.85;;
61373;SDS011;47242;48.158;-1.586;2023-06-14T13:33:56;9.73;;;7.07;;
61373;SDS011;47242;48.158;-1.586;2023-06-14T13:36:21;8.93;;;7.40;;
61373;SDS011;47242;48.158;-1.586;2023-06-14T13:38:47;8.77;;;7.07;;
61373;SDS011;47242;48.158;-1.586;2023-06-14T13:41:13;9.27;;;6.82;;
61373;SDS011;47242;48.158;-1.586;2023-06-14T13:43:38;10.55;;;7.45;;
61373;SDS011;47242;48.158;-1.586;2023-06-14T13:46:04;8.05;;;6.82;;
61373;SDS011;47242;48.158;-1.586;2023-06-14T13:48:30;10.15;;;7.55;;
61373;SDS011;47242;48.158;-1.586;2023-06-14T13:50:55;9.02;;;6.68;;
61373;SDS011;47242;48.158;-1.586;2023-06-14T13:53:22;9.52;;;6.97;;
61373;SDS011;47242;48.158;-1.586;2023-06-14T13:55:47;9.35;;;6.93;;
61373;SDS011;47242;48.158;-1.586;2023-06-14T13:58:13;10.20;;;7.00;;
61373;SDS011;47242;48.158;-1.586;2023-06-14T14:00:40;10.38;;;7.60;;
61373;SDS011;47242;48.158;-1.586;2023-06-14T14:03:06;11.02;;;7.78;;
61373;SDS011;47242;48.158;-1.586;2023-06-14T14:05:33;10.95;;;7.00;;
61373;SDS011;47242;48.158;-1.586;2023-06-14T14:07:59;8.77;;;7.18;;
61373;SDS011;47242;48.158;-1.586;2023-06-14T14:10:25;11.13;;;7.57;;
61373;SDS011;47242;48.158;-1.586;2023-06-14T14:12:51;9.20;;;7.10;;
61373;SDS011;47242;48.158;-1.586;2023-06-14T14:15:17;10.07;;;7.13;;
61373;SDS011;47242;48.158;-1.586;2023-06-14T14:17:43;7.97;;;6.85;;
61373;SDS011;47242;48.158;-1.586;2023-06-14T14:20:09;12.73;;;7.32;;
61373;SDS011;47242;48.158;-1.586;2023-06-14T14:22:37;11.75;;;6.90;;
61373;SDS011;47242;48.158;-1.586;2023-06-14T14:25:03;10.30;;;6.65;;
61373;SDS011;47242;48.158;-1.586;2023-06-14T14:27:29;8.43;;;6.85;;
61373;SDS011;47242;48.158;-1.586;2023-06-14T14:29:54;9.50;;;6.70;;
61373;SDS011;47242;48.158;-1.586;2023-06-14T14:32:20;9.55;;;7.07;;
61373;SDS011;47242;48.158;-1.586;2023-06-14T14:34:46;8.43;;;7.05;;
61373;SDS011;47242;48.158;-1.586;2023-06-14T14:37:11;8.60;;;6.63;;
61373;SDS011;47242;48.158;-1.586;2023-06-14T14:39:38;9.68;;;7.18;;
61373;SDS011;47242;48.158;-1.586;2023-06-14T14:42:04;13.10;;;6.88;;
61373;SDS011;47242;48.158;-1.586;2023-06-14T14:44:30;11.25;;;7.25;;
61373;SDS011;47242;48.158;-1.586;2023-06-14T14:46:56;10.57;;;6.68;;
61373;SDS011;47242;48.158;-1.586;2023-06-14T14:49:21;10.48;;;6.50;;
61373;SDS011;47242;48.158;-1.586;2023-06-14T14:51:47;9.15;;;6.95;;
61373;SDS011;47242;48.158;-1.586;2023-06-14T14:54:12;8.98;;;6.72;;
61373;SDS011;47242;48.158;-1.586;2023-06-14T14:56:38;9.63;;;7.30;;
61373;SDS011;47242;48.158;-1.586;2023-06-14T14:59:04;8.27;;;6.50;;
61373;SDS011;47242;48.158;-1.586;2023-06-14T15:01:30;14.55;;;6.68;;
61373;SDS011;47242;48.158;-1.586;2023-06-14T15:03:55;9.70;;;7.10;;
61373;SDS011;47242;48.158;-1.586;2023-06-14T15:06:21;8.52;;;6.68;;
61373;SDS011;47242;48.158;-1.586;2023-06-14T15:08:47;8.57;;;6.70;;
61373;SDS011;47242;48.158;-1.586;2023-06-14T15:11:12;9.18;;;6.80;;
61373;SDS011;47242;48.158;-1.586;2023-06-14T15:13:38;9.73;;;6.70;;
61373;SDS011;47242;48.158;-1.586;2023-06-14T15:16:04;10.23;;;7.22;;
61373;SDS011;47242;48.158;-1.586;2023-06-14T15:18:30;11.02;;;6.55;;
61373;SDS011;47242;48.158;-1.586;2023-06-14T15:20:55;11.75;;;7.07;;
61373;SDS011;47242;48.158;-1.586;2023-06-14T15:23:21;13.13;;;7.03;;
61373;SDS011;47242;48.158;-1.586;2023-06-14T15:25:47;9.13;;;6.85;;
61373;SDS011;47242;48.158;-1.586;2023-06-14T15:28:13;10.90;;;7.13;;
61373;SDS011;47242;48.158;-1.586;2023-06-14T15:30:39;11.25;;;6.97;;
61373;SDS011;47242;48.158;-1.586;2023-06-14T15:33:05;10.18;;;6.85;;
61373;SDS011;47242;48.158;-1.586;2023-06-14T15:35:31;10.52;;;7.00;;
61373;SDS011;47242;48.158;-1.586;2023-06-14T15:37:57;8.15;;;6.38;;
61373;SDS011;47242;48.158;-1.586;2023-06-14T15:40:23;11.05;;;6.82;;
61373;SDS011;47242;48.158;-1.586;2023-06-14T15:42:48;9.80;;;6.50;;
61373;SDS011;47242;48.158;-1.586;2023-06-14T15:45:14;9.32;;;6.82;;
61373;SDS011;47242;48.158;-1.586;2023-06-14T15:47:40;10.55;;;7.07;;
61373;SDS011;47242;48.158;-1.586;2023-06-14T15:50:06;11.48;;;6.90;;
61373;SDS011;47242;48.158;-1.586;2023-06-14T15:52:33;9.88;;;6.63;;
61373;SDS011;47242;48.158;-1.586;2023-06-14T15:54:59;8.95;;;6.57;;
61373;SDS011;47242;48.158;-1.586;2023-06-14T15:57:24;9.00;;;6.30;;
61373;SDS011;47242;48.158;-1.586;2023-06-14T15:59:50;9.60;;;6.53;;
61373;SDS011;47242;48.158;-1.586;2023-06-14T16:02:16;8.70;;;6.20;;
61373;SDS011;47242;48.158;-1.586;2023-06-14T16:04:42;9.35;;;6.28;;
61373;SDS011;47242;48.158;-1.586;2023-06-14T16:07:08;8.82;;;6.30;;
61373;SDS011;47242;48.158;-1.586;2023-06-14T16:09:34;7.55;;;6.10;;
61373;SDS011;47242;48.158;-1.586;2023-06-14T16:11:59;10.23;;;6.40;;
61373;SDS011;47242;48.158;-1.586;2023-06-14T16:14:26;8.48;;;6.18;;
61373;SDS011;47242;48.158;-1.586;2023-06-14T16:16:52;8.68;;;6.20;;
61373;SDS011;47242;48.158;-1.586;2023-06-14T16:19:18;9.77;;;6.60;;
61373;SDS011;47242;48.158;-1.586;2023-06-14T16:21:43;10.07;;;6.10;;
61373;SDS011;47242;48.158;-1.586;2023-06-14T16:24:09;8.70;;;5.82;;
61373;SDS011;47242;48.158;-1.586;2023-06-14T16:26:34;10.77;;;6.32;;
61373;SDS011;47242;48.158;-1.586;2023-06-14T16:29:00;10.20;;;6.40;;
61373;SDS011;47242;48.158;-1.586;2023-06-14T16:31:26;9.10;;;6.75;;
61373;SDS011;47242;48.158;-1.586;2023-06-14T16:33:51;8.73;;;6.35;;
61373;SDS011;47242;48.158;-1.586;2023-06-14T16:36:21;8.15;;;6.40;;
61373;SDS011;47242;48.158;-1.586;2023-06-14T16:38:47;8.43;;;5.97;;
61373;SDS011;47242;48.158;-1.586;2023-06-14T16:41:13;10.52;;;6.57;;
61373;SDS011;47242;48.158;-1.586;2023-06-14T16:43:39;11.35;;;6.13;;
61373;SDS011;47242;48.158;-1.586;2023-06-14T16:46:05;8.57;;;6.15;;
61373;SDS011;47242;48.158;-1.586;2023-06-14T16:48:31;11.50;;;6.30;;
61373;SDS011;47242;48.158;-1.586;2023-06-14T16:50:56;11.38;;;6.57;;
61373;SDS011;47242;48.158;-1.586;2023-06-14T16:53:22;9.38;;;6.25;;
61373;SDS011;47242;48.158;-1.586;2023-06-14T16:55:48;9.77;;;5.93;;
61373;SDS011;47242;48.158;-1.586;2023-06-14T16:58:13;8.23;;;5.93;;
61373;SDS011;47242;48.158;-1.586;2023-06-14T17:00:39;9.15;;;5.97;;
61373;SDS011;47242;48.158;-1.586;2023-06-14T17:03:05;8.80;;;5.80;;
61373;SDS011;47242;48.158;-1.586;2023-06-14T17:05:31;7.68;;;5.53;;
61373;SDS011;47242;48.158;-1.586;2023-06-14T17:07:57;10.63;;;6.00;;
61373;SDS011;47242;48.158;-1.586;2023-06-14T17:10:23;9.90;;;5.80;;
61373;SDS011;47242;48.158;-1.586;2023-06-14T17:12:50;11.02;;;6.40;;
61373;SDS011;47242;48.158;-1.586;2023-06-14T17:15:15;9.30;;;5.88;;
61373;SDS011;47242;48.158;-1.586;2023-06-14T17:17:41;8.73;;;5.70;;
61373;SDS011;47242;48.158;-1.586;2023-06-14T17:20:07;9.05;;;5.88;;
61373;SDS011;47242;48.158;-1.586;2023-06-14T17:22:34;9.43;;;5.60;;
61373;SDS011;47242;48.158;-1.586;2023-06-14T17:24:59;9.38;;;5.65;;
61373;SDS011;47242;48.158;-1.586;2023-06-14T17:27:25;9.00;;;5.60;;
61373;SDS011;47242;48.158;-1.586;2023-06-14T17:29:51;8.15;;;5.55;;
61373;SDS011;47242;48.158;-1.586;2023-06-14T17:32:17;9.38;;;5.13;;
61373;SDS011;47242;48.158;-1.586;2023-06-14T17:34:43;10.38;;;5.82;;
61373;SDS011;47242;48.158;-1.586;2023-06-14T17:37:10;12.57;;;5.82;;
61373;SDS011;47242;48.158;-1.586;2023-06-14T17:39:36;11.23;;;5.60;;
61373;SDS011;47242;48.158;-1.586;2023-06-14T17:42:04;7.63;;;5.63;;
61373;SDS011;47242;48.158;-1.586;2023-06-14T17:44:30;8.75;;;5.57;;
61373;SDS011;47242;48.158;-1.586;2023-06-14T17:46:56;8.48;;;5.30;;
61373;SDS011;47242;48.158;-1.586;2023-06-14T17:49:21;11.57;;;5.70;;
61373;SDS011;47242;48.158;-1.586;2023-06-14T17:51:50;9.75;;;5.88;;
61373;SDS011;47242;48.158;-1.586;2023-06-14T17:54:16;9.75;;;5.93;;
61373;SDS011;47242;48.158;-1.586;2023-06-14T17:56:42;10.85;;;6.55;;
61373;SDS011;47242;48.158;-1.586;2023-06-14T17:59:07;10.40;;;6.50;;
61373;SDS011;47242;48.158;-1.586;2023-06-14T18:01:33;10.05;;;5.32;;
61373;SDS011;47242;48.158;-1.586;2023-06-14T18:03:59;7.97;;;5.30;;
61373;SDS011;47242;48.158;-1.586;2023-06-14T18:06:24;10.48;;;6.60;;
61373;SDS011;47242;48.158;-1.586;2023-06-14T18:08:50;10.30;;;5.07;;
61373;SDS011;47242;48.158;-1.586;2023-06-14T18:11:16;7.90;;;5.20;;
61373;SDS011;47242;48.158;-1.586;2023-06-14T18:13:42;8.07;;;5.40;;
61373;SDS011;47242;48.158;-1.586;2023-06-14T18:16:08;8.18;;;5.97;;
61373;SDS011;47242;48.158;-1.586;2023-06-14T18:18:33;9.98;;;6.55;;
61373;SDS011;47242;48.158;-1.586;2023-06-14T18:21:00;7.85;;;5.60;;
61373;SDS011;47242;48.158;-1.586;2023-06-14T18:23:27;12.43;;;5.40;;
61373;SDS011;47242;48.158;-1.586;2023-06-14T18:25:52;10.38;;;5.53;;
61373;SDS011;47242;48.158;-1.586;2023-06-14T18:28:18;9.30;;;5.65;;
61373;SDS011;47242;48.158;-1.586;2023-06-14T18:30:44;14.82;;;6.40;;
61373;SDS011;47242;48.158;-1.586;2023-06-14T18:33:10;10.38;;;6.22;;
61373;SDS011;47242;48.158;-1.586;2023-06-14T18:35:36;12.43;;;6.88;;
61373;SDS011;47242;48.158;-1.586;2023-06-14T18:38:02;9.32;;;5.80;;
61373;SDS011;47242;48.158;-1.586;2023-06-14T18:40:27;12.00;;;5.78;;
61373;SDS011;47242;48.158;-1.586;2023-06-14T18:42:53;9.90;;;5.88;;
61373;SDS011;47242;48.158;-1.586;2023-06-14T18:45:19;11.57;;;5.47;;
61373;SDS011;47242;48.158;-1.586;2023-06-14T18:47:45;10.05;;;5.00;;
61373;SDS011;47242;48.158;-1.586;2023-06-14T18:50:11;10.10;;;6.32;;
61373;SDS011;47242;48.158;-1.586;2023-06-14T18:52:36;8.90;;;5.30;;
61373;SDS011;47242;48.158;-1.586;2023-06-14T18:55:02;10.88;;;5.20;;
61373;SDS011;47242;48.158;-1.586;2023-06-14T18:57:28;9.50;;;5.30;;
61373;SDS011;47242;48.158;-1.586;2023-06-14T18:59:54;9.80;;;5.22;;
61373;SDS011;47242;48.158;-1.586;2023-06-14T19:02:20;8.43;;;5.45;;
61373;SDS011;47242;48.158;-1.586;2023-06-14T19:04:45;9.25;;;5.70;;